Time;durP1;ratioP1;P1;durP2;ratioP2;P2;SDS_P1;SDS_P2;PMS_P1;PMS_P2;Temp;Humidity;BMP_temperature;BMP_pressure;BME280_temperature;BME280_humidity;BME280_pressure;Samples;Min_cycle;Max_cycle;Signal;HPM_P1;HPM_P2
2023/02/15 00:00:14;;;;;;;103.18;18.73;;;;;;;-2.62;100.00;97230.31;1032863;28;20046;-79
2023/02/15 00:00:45;;;;;;;54.42;16.80;;;;;;;-2.69;100.00;97218.97;1030851;28;20500;-78
2023/02/15 00:01:16;;;;;;;85.40;17.88;;;;;;;-2.54;100.00;97234.75;1022663;29;20410;-79
2023/02/15 00:01:47;;;;;;;95.70;20.20;;;;;;;-2.62;100.00;97224.34;1026651;28;20026;-79
2023/02/15 00:02:19;;;;;;;90.74;20.12;;;;;;;-2.79;100.00;97202.81;1022691;29;20024;-79
2023/02/15 00:02:50;;;;;;;72.30;18.80;;;;;;;-2.59;100.00;97228.41;1022985;29;20073;-79
2023/02/15 00:03:21;;;;;;;77.88;18.20;;;;;;;-2.60;100.00;97232.75;1026571;28;20472;-79
2023/02/15 00:03:51;;;;;;;85.45;17.63;;;;;;;-2.64;100.00;97227.06;1034693;28;20049;-79
2023/02/15 00:04:45;;;;;;;63.06;18.32;;;;;;;-2.61;100.00;97231.94;1032553;28;20046;-79
2023/02/15 00:05:16;;;;;;;152.30;20.10;;;;;;;-2.74;100.00;97220.38;1031054;28;20022;-79
2023/02/15 00:05:46;;;;;;;131.55;20.95;;;;;;;-2.88;100.00;97208.81;1022792;28;20192;-79
2023/02/15 00:06:17;;;;;;;138.00;20.02;;;;;;;-2.91;100.00;97206.53;1027969;28;20034;-79
2023/02/15 00:06:48;;;;;;;119.80;21.15;;;;;;;-2.82;100.00;97218.50;1022561;29;20027;-79
2023/02/15 00:07:19;;;;;;;138.32;27.75;;;;;;;-2.99;100.00;97193.56;1016147;29;20080;-78
2023/02/15 00:07:49;;;;;;;156.17;30.37;;;;;;;-2.83;100.00;97224.59;1014870;29;20021;-79
2023/02/15 00:08:20;;;;;;;105.95;26.00;;;;;;;-2.92;100.00;97207.47;1018040;29;20683;-79
2023/02/15 00:08:50;;;;;;;142.10;22.92;;;;;;;-2.87;100.00;97223.25;1014760;29;20035;-79
2023/02/15 00:09:21;;;;;;;88.15;21.08;;;;;;;-2.85;100.00;97221.34;1018861;29;20021;-78
2023/02/15 00:09:52;;;;;;;98.38;21.02;;;;;;;-2.91;100.00;97211.66;1022492;29;20034;-79
2023/02/15 00:10:23;;;;;;;125.93;21.20;;;;;;;-2.90;100.00;97215.84;1030679;28;20491;-79
2023/02/15 00:11:02;;;;;;;107.92;20.48;;;;;;;-2.84;100.00;97222.97;1022496;29;20031;-79
2023/02/15 00:11:43;;;;;;;111.63;18.65;;;;;;;-2.81;100.00;97227.03;1019965;29;20419;-79
2023/02/15 00:12:13;;;;;;;;;;;;;;;-2.81;100.00;97220.13;1025491;28;20525;-79
2023/02/15 00:12:44;;;;;;;98.90;19.03;;;;;;;-2.85;100.00;97208.50;1029676;28;20406;-78
2023/02/15 00:13:14;;;;;;;68.70;20.17;;;;;;;-2.87;100.00;97195.00;1017579;29;20024;-79
2023/02/15 00:13:45;;;;;;;116.40;23.57;;;;;;;-2.81;100.00;97206.50;1023064;28;20024;-78
2023/02/15 00:14:17;;;;;;;93.03;28.73;;;;;;;-2.94;100.00;97179.38;1018281;29;20513;-79
2023/02/15 00:14:48;;;;;;;100.60;37.32;;;;;;;-2.72;100.00;97211.56;1022556;28;20019;-79
2023/02/15 00:15:18;;;;;;;124.93;44.37;;;;;;;-2.66;100.00;97217.88;1019037;29;20039;-78
2023/02/15 00:15:49;;;;;;;157.70;32.92;;;;;;;-2.76;100.00;97199.94;1022742;29;20297;-79
2023/02/15 00:16:20;;;;;;;164.88;32.72;;;;;;;-2.79;100.00;97197.66;1019072;29;20028;-79
2023/02/15 00:16:51;;;;;;;129.80;27.84;;;;;;;-2.76;100.00;97206.84;1022643;29;20027;-79
2023/02/15 00:17:22;;;;;;;110.54;23.52;;;;;;;-2.67;100.00;97216.28;1014990;29;20020;-79
2023/02/15 00:17:52;;;;;;;104.60;29.23;;;;;;;-2.68;100.00;97215.47;1022818;29;20053;-78
2023/02/15 00:18:23;;;;;;;82.20;27.38;;;;;;;-2.68;100.00;97214.66;1022784;29;20263;-79
2023/02/15 00:18:53;;;;;;;77.32;21.27;;;;;;;-2.69;100.00;97218.97;1030785;28;20128;-79
2023/02/15 00:19:24;;;;;;;69.18;21.80;;;;;;;-2.76;100.00;97199.94;1030910;28;20021;-79
2023/02/15 00:19:54;;;;;;;108.43;21.87;;;;;;;-2.67;100.00;97217.09;1025917;28;20572;-79
2023/02/15 00:20:25;;;;;;;77.07;19.33;;;;;;;-2.74;100.00;97218.63;1022696;29;20031;-79
2023/02/15 00:20:56;;;;;;;144.85;19.35;;;;;;;-2.91;100.00;97204.75;1022782;29;20717;-79
2023/02/15 00:21:29;;;;;;;69.78;17.88;;;;;;;-2.80;100.00;97214.03;1030643;28;20180;-78
2023/02/15 00:22:00;;;;;;;63.78;16.83;;;;;;;-2.79;100.00;97217.41;1024044;28;20038;-79
2023/02/15 00:22:30;;;;;;;103.87;18.17;;;;;;;-2.86;100.00;97202.56;1026741;28;20062;-79
2023/02/15 00:23:01;;;;;;;117.63;19.10;;;;;;;-2.83;100.00;97216.88;1023060;29;20031;-79
2023/02/15 00:23:32;;;;;;;133.75;19.80;;;;;;;-2.90;100.00;97210.69;1018807;28;20028;-79
2023/02/15 00:24:04;;;;;;;90.53;18.90;;;;;;;-2.84;100.00;97215.28;1023112;29;20047;-78
2023/02/15 00:24:34;;;;;;;94.50;17.40;;;;;;;-2.83;100.00;97222.03;1022678;29;20015;-79
2023/02/15 00:25:05;;;;;;;58.47;17.50;;;;;;;-2.94;100.00;97197.34;1018712;29;20033;-79
2023/02/15 00:25:35;;;;;;;157.15;18.40;;;;;;;-2.87;100.00;97220.69;1026812;28;20445;-79
2023/02/15 00:26:10;;;;;;;79.20;16.03;;;;;;;-2.90;100.00;97208.94;1030988;28;20041;-79
2023/02/15 00:26:41;;;;;;;192.36;18.80;;;;;;;-3.05;100.00;97209.53;1022688;28;20614;-79
2023/02/15 00:27:12;;;;;;;152.93;22.67;;;;;;;-3.03;100.00;97220.47;1018880;29;20147;-79
2023/02/15 00:27:42;;;;;;;95.30;17.55;;;;;;;-2.96;100.00;97227.47;1022873;29;20027;-79
2023/02/15 00:28:13;;;;;;;84.43;18.57;;;;;;;-2.98;100.00;97208.03;1022843;29;20027;-78
2023/02/15 00:28:43;;;;;;;81.70;18.10;;;;;;;-2.98;100.00;97205.47;1021964;28;20015;-79
2023/02/15 00:29:16;;;;;;;107.57;17.77;;;;;;;-2.93;100.00;97221.25;1030605;28;20059;-79
2023/02/15 00:29:47;;;;;;;127.56;19.08;;;;;;;-3.00;100.00;97220.19;1015360;29;20028;-79
2023/02/15 00:30:18;;;;;;;116.28;19.27;;;;;;;-3.01;100.00;97223.72;1022623;28;20027;-79
2023/02/15 00:30:48;;;;;;;129.60;19.02;;;;;;;-3.11;100.00;97219.44;1022871;29;20028;-79
2023/02/15 00:31:20;;;;;;;74.10;17.37;;;;;;;-3.02;100.00;97227.22;1022706;28;20419;-79
2023/02/15 00:31:53;;;;;;;111.32;18.08;;;;;;;-3.10;100.00;97215.91;1026763;28;20046;-79
2023/02/15 00:32:23;;;;;;;103.57;19.73;;;;;;;-2.99;100.00;97232.09;1026666;28;20119;-80
2023/02/15 00:32:54;;;;;;;54.57;15.80;;;;;;;-3.01;100.00;97221.97;1026733;28;20347;-80
2023/02/15 00:33:25;;;;;;;134.47;19.47;;;;;;;-3.10;100.00;97217.66;1022742;29;20031;-79
2023/02/15 00:34:01;;;;;;;60.55;16.08;;;;;;;-3.17;100.00;97202.00;1034385;28;20018;-79
2023/02/15 00:34:32;;;;;;;95.45;20.98;;;;;;;-3.01;100.00;97227.09;1034491;28;20034;-79
2023/02/15 00:35:04;;;;;;;68.60;16.13;;;;;;;-2.94;100.00;97235.06;1030497;28;20443;-79
2023/02/15 00:35:38;;;;;;;116.70;19.27;;;;;;;-3.00;100.00;97230.47;1019400;29;20119;-79
2023/02/15 00:36:09;;;;;;;70.93;17.02;;;;;;;-2.99;100.00;97229.50;1026216;28;20023;-79
2023/02/15 00:36:40;;;;;;;95.47;17.63;;;;;;;-3.16;100.00;97210.53;1022935;29;20441;-79
2023/02/15 00:37:11;;;;;;;87.40;17.56;;;;;;;-3.05;100.00;97227.50;1014385;29;20028;-79
2023/02/15 00:37:42;;;;;;;158.63;20.47;;;;;;;-3.04;100.00;97224.00;1019071;29;20028;-79
2023/02/15 00:38:13;;;;;;;122.94;17.38;;;;;;;-2.98;100.00;97226.03;1022745;29;20016;-79
2023/02/15 00:38:44;;;;;;;103.25;18.30;;;;;;;-2.99;100.00;97226.94;1024052;28;20035;-79
2023/02/15 00:39:15;;;;;;;109.13;18.50;;;;;;;-3.14;100.00;97204.31;1027078;28;20023;-79
2023/02/15 00:39:48;;;;;;;90.34;16.62;;;;;;;-3.08;100.00;97224.28;1022793;29;20466;-79
2023/02/15 00:40:19;;;;;;;147.13;17.33;;;;;;;-3.11;100.00;97227.13;1014851;29;20040;-79
2023/02/15 00:40:56;;;;;;;83.07;16.47;;;;;;;-3.06;100.00;97221.56;1018876;29;20036;-79
2023/02/15 00:41:27;;;;;;;87.45;18.20;;;;;;;-3.06;100.00;97215.63;1026598;28;20890;-79
2023/02/15 00:41:58;;;;;;;86.55;17.20;;;;;;;-3.02;100.00;97227.22;1026873;28;20038;-79
2023/02/15 00:42:29;;;;;;;63.28;15.18;;;;;;;-3.01;100.00;97218.59;1026694;28;20026;-79
2023/02/15 00:43:00;;;;;;;97.18;18.55;;;;;;;-3.04;100.00;97214.53;1022923;29;20059;-78
2023/02/15 00:43:31;;;;;;;104.80;18.50;;;;;;;-3.13;100.00;97205.09;1018710;29;20458;-79
2023/02/15 00:44:02;;;;;;;59.03;16.77;;;;;;;-3.09;100.00;97196.16;1020317;29;20079;-79
2023/02/15 00:44:33;;;;;;;78.23;16.00;;;;;;;-3.02;100.00;97204.91;1026635;28;20031;-79
2023/02/15 00:45:04;;;;;;;87.05;16.13;;;;;;;-3.00;100.00;97212.50;1026792;28;20047;-79
2023/02/15 00:45:35;;;;;;;81.00;18.90;;;;;;;-2.89;100.00;97214.88;1026243;28;20027;-79
2023/02/15 00:46:05;;;;;;;52.63;16.63;;;;;;;-2.86;100.00;97224.88;1030498;28;20057;-79
2023/02/15 00:46:36;;;;;;;60.20;17.50;;;;;;;-2.90;100.00;97211.50;1026857;28;20098;-78
2023/02/15 00:47:07;;;;;;;82.57;17.10;;;;;;;-3.01;100.00;97198.84;1026799;28;20030;-79
2023/02/15 00:47:37;;;;;;;67.35;16.65;;;;;;;-2.99;100.00;97201.28;1030183;28;20053;-79
2023/02/15 00:48:08;;;;;;;69.60;16.50;;;;;;;-2.87;100.00;97215.56;1023237;28;20024;-79
2023/02/15 00:48:38;;;;;;;99.32;17.27;;;;;;;-2.93;100.00;97200.72;1022854;28;20027;-79
2023/02/15 00:49:09;;;;;;;80.45;17.00;;;;;;;-2.85;100.00;97213.63;1014718;29;20012;-79
2023/02/15 00:49:40;;;;;;;47.65;16.00;;;;;;;-2.88;100.00;97208.81;1021825;29;20091;-78
2023/02/15 00:50:10;;;;;;;48.17;15.00;;;;;;;-2.88;100.00;97207.06;1030891;28;20029;-79
2023/02/15 00:50:41;;;;;;;126.63;20.85;;;;;;;-2.86;100.00;97219.75;1030754;28;20026;-79
2023/02/15 00:51:12;;;;;;;135.98;17.52;;;;;;;-3.02;100.00;97210.06;1026926;28;20518;-79
2023/02/15 00:51:43;;;;;;;114.07;16.80;;;;;;;-3.05;100.00;97200.09;1022520;29;20047;-79
2023/02/15 00:52:13;;;;;;;114.63;19.05;;;;;;;-3.15;100.00;97202.69;1014839;29;20024;-79
2023/02/15 00:52:44;;;;;;;93.28;17.13;;;;;;;-3.05;100.00;97212.09;1015572;29;20020;-78
2023/02/15 00:53:15;;;;;;;47.87;14.17;;;;;;;-3.01;100.00;97214.25;1026963;28;20033;-79
2023/02/15 00:53:46;;;;;;;56.70;15.88;;;;;;;-2.99;100.00;97211.53;1026779;28;20457;-80
2023/02/15 00:54:17;;;;;;;78.47;16.90;;;;;;;-3.09;100.00;97196.97;1023065;29;20083;-79
2023/02/15 00:54:48;;;;;;;124.13;17.27;;;;;;;-3.01;100.00;97218.59;1022082;29;20054;-79
2023/02/15 00:55:18;;;;;;;57.60;16.63;;;;;;;-3.09;100.00;97202.09;1022828;29;20027;-79
2023/02/15 00:55:49;;;;;;;103.90;18.23;;;;;;;-3.16;100.00;97180.53;1026806;28;20102;-79
2023/02/15 00:56:20;;;;;;;79.65;17.02;;;;;;;-3.05;100.00;97191.56;1024261;28;20022;-79
2023/02/15 00:56:50;;;;;;;121.43;18.97;;;;;;;-2.99;100.00;97206.41;1022871;29;20373;-79
2023/02/15 00:57:21;;;;;;;77.97;16.37;;;;;;;-2.99;100.00;97206.41;1023059;29;20353;-78
2023/02/15 00:57:54;;;;;;;104.20;17.00;;;;;;;-3.12;100.00;97187.00;1024083;28;20446;-79
2023/02/15 00:58:24;;;;;;;123.00;17.30;;;;;;;-3.13;100.00;97193.06;1034588;28;20073;-78
2023/02/15 00:58:55;;;;;;;43.53;15.43;;;;;;;-3.01;100.00;97208.31;1030595;28;20066;-79
2023/02/15 00:59:26;;;;;;;47.63;15.90;;;;;;;-2.98;100.00;97202.91;1026504;28;20026;-79
2023/02/15 00:59:56;;;;;;;81.67;17.60;;;;;;;-2.95;100.00;97198.31;1030179;28;20199;-79
2023/02/15 01:00:28;;;;;;;70.93;18.13;;;;;;;-2.93;100.00;97203.28;1030542;28;20030;-80
2023/02/15 01:01:08;;;;;;;109.16;18.08;;;;;;;-3.03;100.00;97189.66;1022684;29;20070;-79
2023/02/15 01:01:39;;;;;;;121.60;17.38;;;;;;;-3.11;100.00;97177.56;1018468;29;20668;-79
2023/02/15 01:02:10;;;;;;;89.03;16.27;;;;;;;-3.16;100.00;97165.13;1026241;28;20034;-79
2023/02/15 01:02:42;;;;;;;74.04;16.58;;;;;;;-2.94;100.00;97199.91;1030432;28;20424;-79
2023/02/15 01:03:13;;;;;;;110.13;18.33;;;;;;;-2.96;100.00;97195.84;1029307;28;20373;-79
2023/02/15 01:03:43;;;;;;;110.88;19.26;;;;;;;-2.95;100.00;97194.91;1026845;28;20050;-79
2023/02/15 01:04:14;;;;;;;58.73;16.17;;;;;;;-2.92;100.00;97199.75;1026890;28;20031;-78
2023/02/15 01:04:45;;;;;;;72.50;18.60;;;;;;;-2.90;100.00;97195.28;1030745;28;20021;-79
2023/02/15 01:05:16;;;;;;;91.82;18.86;;;;;;;-2.92;100.00;97198.03;1026793;28;20457;-79
2023/02/15 01:05:48;;;;;;;101.63;18.55;;;;;;;-2.90;100.00;97197.88;1026812;28;20111;-79
2023/02/15 01:06:20;;;;;;;114.15;17.00;;;;;;;-2.93;100.00;97191.25;1030190;28;20532;-80
2023/02/15 01:06:50;;;;;;;57.50;17.66;;;;;;;-2.85;100.00;97195.66;1027262;28;20050;-79
2023/02/15 01:07:21;;;;;;;52.83;15.23;;;;;;;-2.87;100.00;97195.00;1034643;28;20224;-79
2023/02/15 01:07:51;;;;;;;87.65;17.30;;;;;;;-2.92;100.00;97194.63;1027101;28;20023;-79
2023/02/15 01:08:23;;;;;;;80.05;20.33;;;;;;;-2.85;100.00;97198.22;1026354;28;20027;-79
2023/02/15 01:08:53;;;;;;;80.70;16.40;;;;;;;-2.89;100.00;97195.13;1030967;28;20029;-79
2023/02/15 01:09:24;;;;;;;72.20;15.73;;;;;;;-2.86;100.00;97201.75;1034720;28;20033;-79
2023/02/15 01:09:55;;;;;;;75.90;15.43;;;;;;;-2.91;100.00;97191.13;1034765;28;20025;-79
2023/02/15 01:10:27;;;;;;;57.88;17.10;;;;;;;-3.03;100.00;97171.69;1030298;28;20026;-79
2023/02/15 01:11:10;;;;;;;75.45;17.30;;;;;;;-2.80;100.00;97193.50;1023110;28;20019;-79
2023/02/15 01:11:40;;;;;;;78.18;17.17;;;;;;;-2.81;100.00;97191.06;1028092;28;20125;-78
2023/02/15 01:12:11;;;;;;;53.47;14.52;;;;;;;-2.92;100.00;97171.50;1023048;29;20498;-78
2023/02/15 01:12:43;;;;;;;62.76;14.82;;;;;;;-2.91;100.00;97183.41;1026736;28;20015;-78
2023/02/15 01:13:15;;;;;;;78.94;18.88;;;;;;;-2.83;100.00;97185.25;1019662;29;20039;-78
2023/02/15 01:13:45;;;;;;;125.58;19.22;;;;;;;-2.96;100.00;97175.31;1026833;28;20485;-79
2023/02/15 01:14:16;;;;;;;83.07;15.02;;;;;;;-2.90;100.00;97179.88;1022541;29;20026;-79
2023/02/15 01:14:47;;;;;;;117.20;19.35;;;;;;;-2.89;100.00;97190.00;1022402;29;20442;-79
2023/02/15 01:15:17;;;;;;;82.43;16.48;;;;;;;-2.90;100.00;97182.47;1022883;28;20042;-79
2023/02/15 01:15:54;;;;;;;118.07;17.00;;;;;;;-2.87;100.00;97179.59;1030547;28;20011;-79
2023/02/15 01:16:26;;;;;;;80.88;16.38;;;;;;;-2.95;100.00;97171.78;1031120;28;20535;-78
2023/02/15 01:16:56;;;;;;;94.68;16.94;;;;;;;-2.93;100.00;97183.53;1026368;28;20023;-79
2023/02/15 01:17:27;;;;;;;65.82;15.02;;;;;;;-2.91;100.00;97188.56;1025654;28;20027;-79
2023/02/15 01:17:57;;;;;;;132.43;17.17;;;;;;;-3.03;100.00;97180.22;1023146;28;20027;-79
2023/02/15 01:18:28;;;;;;;111.05;20.27;;;;;;;-2.97;100.00;97178.84;1026910;28;20034;-79
2023/02/15 01:18:59;;;;;;;132.82;17.05;;;;;;;-3.09;100.00;97168.72;1030600;28;20460;-79
2023/02/15 01:19:29;;;;;;;120.15;16.80;;;;;;;-3.08;100.00;97172.13;1018823;29;20051;-78
2023/02/15 01:20:00;;;;;;;72.70;15.63;;;;;;;-3.03;100.00;97176.84;1026594;28;20530;-79
2023/02/15 01:20:34;;;;;;;109.83;17.93;;;;;;;-3.03;100.00;97181.97;1026466;28;20023;-79
2023/02/15 01:21:13;;;;;;;95.72;17.00;;;;;;;-3.14;100.00;97152.16;1027256;28;20026;-79
2023/02/15 01:21:44;;;;;;;118.00;17.58;;;;;;;-3.11;100.00;97170.66;1028675;28;20030;-79
2023/02/15 01:22:14;;;;;;;78.83;15.93;;;;;;;-3.15;100.00;97159.06;1030005;28;20506;-79
2023/02/15 01:22:44;;;;;;;92.17;16.30;;;;;;;-3.13;100.00;97177.69;1034744;28;20010;-80
2023/02/15 01:23:15;;;;;;;83.45;16.65;;;;;;;-3.08;100.00;97182.41;1022625;29;20030;-79
2023/02/15 01:23:46;;;;;;;136.02;21.92;;;;;;;-3.12;100.00;97176.75;1026973;28;20027;-79
2023/02/15 01:24:17;;;;;;;107.15;16.55;;;;;;;-3.15;100.00;97171.91;1031113;28;20120;-79
2023/02/15 01:24:50;;;;;;;157.93;21.67;;;;;;;-3.27;100.00;97170.44;1030855;28;20026;-79
2023/02/15 01:25:21;;;;;;;104.80;17.92;;;;;;;-3.15;100.00;97182.16;1030512;28;20448;-79
2023/02/15 01:25:55;;;;;;;133.68;20.05;;;;;;;-3.14;100.00;97173.50;1030829;28;20042;-79
2023/02/15 01:26:26;;;;;;;97.47;16.80;;;;;;;-3.23;100.00;97169.19;1031600;28;20020;-79
2023/02/15 01:26:56;;;;;;;123.87;19.00;;;;;;;-3.18;100.00;97174.75;1035078;28;20033;-79
2023/02/15 01:27:30;;;;;;;112.43;16.30;;;;;;;-3.06;100.00;97184.81;1027247;28;20458;-79
2023/02/15 01:28:01;;;;;;;69.60;16.80;;;;;;;-3.05;100.00;97182.13;1021762;29;20023;-79
2023/02/15 01:28:32;;;;;;;55.14;14.56;;;;;;;-3.01;100.00;97185.22;1023372;29;20011;-79
2023/02/15 01:29:03;;;;;;;71.55;15.95;;;;;;;-3.04;100.00;97177.78;1031651;28;20070;-79
2023/02/15 01:29:34;;;;;;;59.80;16.90;;;;;;;-3.04;100.00;97180.38;1031026;28;20059;-79
2023/02/15 01:30:06;;;;;;;86.25;18.02;;;;;;;-3.06;100.00;97171.97;1031262;28;20271;-79
2023/02/15 01:30:37;;;;;;;115.68;16.10;;;;;;;-3.12;100.00;97174.19;1023190;29;20023;-79
2023/02/15 01:31:10;;;;;;;84.27;15.73;;;;;;;-3.00;100.00;97184.25;1019175;29;20121;-79
2023/02/15 01:31:41;;;;;;;52.70;15.46;;;;;;;-2.97;100.00;97179.66;1027142;28;20528;-78
2023/02/15 01:32:12;;;;;;;71.92;15.28;;;;;;;-2.98;100.00;97184.94;1025846;28;20019;-79
2023/02/15 01:32:43;;;;;;;88.60;16.80;;;;;;;-2.98;100.00;97180.59;1023227;29;20545;-79
2023/02/15 01:33:17;;;;;;;93.50;19.13;;;;;;;-3.11;100.00;97175.78;1021722;28;20098;-79
2023/02/15 01:33:48;;;;;;;106.82;17.72;;;;;;;-3.19;100.00;97160.25;1021726;29;20035;-79
2023/02/15 01:34:18;;;;;;;82.82;16.92;;;;;;;-3.10;100.00;97177.41;1022800;29;20418;-79
2023/02/15 01:34:49;;;;;;;171.80;19.55;;;;;;;-3.12;100.00;97176.75;1026485;28;20030;-79
2023/02/15 01:35:20;;;;;;;74.35;18.20;;;;;;;-3.09;100.00;97186.72;1029668;28;20014;-79
2023/02/15 01:35:57;;;;;;;91.80;17.40;;;;;;;-3.06;100.00;97179.69;1027352;28;20019;-79
2023/02/15 01:36:27;;;;;;;90.22;17.08;;;;;;;-3.01;100.00;97182.66;1023487;29;20105;-78
2023/02/15 01:36:58;;;;;;;109.88;16.48;;;;;;;-3.27;100.00;97152.47;1022950;29;20027;-79
2023/02/15 01:37:31;;;;;;;108.85;16.80;;;;;;;-3.21;100.00;97171.66;1023179;29;20448;-79
2023/02/15 01:38:01;;;;;;;111.44;16.62;;;;;;;-3.15;100.00;97171.09;1026791;28;20668;-79
2023/02/15 01:38:32;;;;;;;84.37;17.07;;;;;;;-3.16;100.00;97170.25;1023334;29;20055;-78
2023/02/15 01:39:03;;;;;;;90.28;17.20;;;;;;;-3.03;100.00;97177.63;1030817;28;20566;-79
2023/02/15 01:39:34;;;;;;;65.30;15.13;;;;;;;-2.98;100.00;97182.38;1027398;28;20026;-79
2023/02/15 01:40:08;;;;;;;46.97;14.77;;;;;;;-2.94;100.00;97186.25;1020272;29;20564;-79
2023/02/15 01:40:39;;;;;;;52.76;14.16;;;;;;;-2.97;100.00;97173.72;1016527;29;20384;-79
2023/02/15 01:41:26;;;;;;;49.43;14.43;;;;;;;-2.93;100.00;97175.03;1016203;29;20032;-80
2023/02/15 01:41:57;;;;;;;48.10;15.15;;;;;;;-2.94;100.00;97169.09;1026632;28;20023;-79
2023/02/15 01:42:30;;;;;;;61.88;15.57;;;;;;;-2.87;100.00;97187.31;1022881;29;20122;-79
2023/02/15 01:43:01;;;;;;;78.12;17.96;;;;;;;-2.86;100.00;97182.00;1023381;29;20083;-79
2023/02/15 01:43:42;;;;;;;61.75;15.68;;;;;;;-2.86;100.00;97174.31;1019246;29;20506;-79
2023/02/15 01:44:48;;;;;;;49.50;14.72;;;;;;;-2.82;100.00;97182.53;1015425;29;20024;-79
2023/02/15 01:45:22;;;;;;;72.92;15.18;;;;;;;-2.89;100.00;97186.63;1025044;28;20015;-79
2023/02/15 01:45:53;;;;;;;68.60;17.32;;;;;;;-2.88;100.00;97170.28;1025753;28;20039;-79
2023/02/15 01:46:45;;;;;;;63.45;14.52;;;;;;;-2.82;100.00;97182.53;1027480;28;20019;-79
2023/02/15 01:47:22;;;;;;;58.10;15.30;;;;;;;-2.86;100.00;97174.31;1023142;29;20118;-79
2023/02/15 01:48:10;;;;;;;85.10;16.38;;;;;;;-2.87;100.00;97175.28;1027107;28;20436;-79
2023/02/15 01:48:47;;;;;;;130.40;17.67;;;;;;;-2.93;100.00;97180.97;1035469;28;20026;-79
2023/02/15 01:49:19;;;;;;;112.62;16.38;;;;;;;-2.95;100.00;97179.50;1038901;28;20036;-79
2023/02/15 01:49:54;;;;;;;114.38;18.50;;;;;;;-3.05;100.00;97171.03;1023245;29;20642;-79
2023/02/15 01:50:33;;;;;;;111.60;20.04;;;;;;;-3.02;100.00;97178.44;1027317;28;20167;-79
2023/02/15 01:51:05;;;;;;;162.63;18.17;;;;;;;-3.27;100.00;97159.38;1030996;28;20038;-79
2023/02/15 01:51:36;;;;;;;137.02;17.92;;;;;;;-3.22;100.00;97175.97;1019462;29;20027;-79
2023/02/15 01:52:08;;;;;;;104.58;17.10;;;;;;;-3.13;100.00;97177.69;1023436;29;20023;-78
2023/02/15 01:52:49;;;;;;;76.92;16.78;;;;;;;-3.22;100.00;97157.19;1027338;28;20023;-79
2023/02/15 01:53:31;;;;;;;62.92;16.17;;;;;;;-3.04;100.00;97177.78;1031372;28;20020;-79
2023/02/15 01:54:31;;;;;;;57.96;16.42;;;;;;;-3.49;100.00;97097.16;1031697;28;20018;-79
2023/02/15 01:55:02;;;;;;;85.10;16.08;;;;;;;-2.97;100.00;97176.28;1012681;29;20042;-78
2023/02/15 01:55:38;;;;;;;137.50;25.58;;;;;;;-2.95;100.00;97179.50;1023221;29;20046;-79
2023/02/15 01:56:11;;;;;;;87.72;17.75;;;;;;;-3.02;100.00;97170.75;1027476;28;20405;-79
2023/02/15 01:56:42;;;;;;;104.40;16.92;;;;;;;-3.03;100.00;97175.06;1023634;29;20639;-79
2023/02/15 01:57:16;;;;;;;78.50;16.80;;;;;;;-3.14;100.00;97165.78;1023514;29;20173;-79
2023/02/15 01:57:47;;;;;;;35.13;14.85;;;;;;;-3.01;100.00;97167.25;1027562;28;20054;-78
2023/02/15 01:58:18;;;;;;;133.95;19.02;;;;;;;-3.08;100.00;97175.50;1030604;28;20035;-79
2023/02/15 01:58:50;;;;;;;95.48;15.80;;;;;;;-3.13;100.00;97164.84;1014765;29;20510;-79
2023/02/15 01:59:22;;;;;;;99.06;16.36;;;;;;;-3.06;100.00;97174.56;1021918;29;20439;-80
2023/02/15 01:59:56;;;;;;;111.80;20.60;;;;;;;-3.13;100.00;97174.31;1020599;29;20047;-79
2023/02/15 02:00:28;;;;;;;49.30;14.32;;;;;;;-3.05;100.00;97171.03;1034737;28;20060;-79
2023/02/15 02:00:59;;;;;;;72.53;16.30;;;;;;;-3.02;100.00;97173.31;1035189;28;20460;-80
2023/02/15 02:01:32;;;;;;;68.30;16.67;;;;;;;-3.02;100.00;97173.31;1030523;28;20664;-78
2023/02/15 02:02:02;;;;;;;80.82;18.35;;;;;;;-3.03;100.00;97171.69;1019214;29;20166;-79
2023/02/15 02:02:33;;;;;;;74.20;16.73;;;;;;;-3.01;100.00;97172.38;1026494;28;20650;-79
2023/02/15 02:03:04;;;;;;;73.43;16.98;;;;;;;-2.98;100.00;97172.09;1021841;29;20020;-79
2023/02/15 02:04:01;;;;;;;83.40;16.25;;;;;;;-3.14;100.00;97141.91;1018696;29;20024;-79
2023/02/15 02:04:37;;;;;;;69.75;16.08;;;;;;;-2.95;100.00;97171.78;1031118;28;20029;-79
2023/02/15 02:05:08;;;;;;;115.78;17.73;;;;;;;-2.99;100.00;97173.03;1035533;28;20112;-78
2023/02/15 02:05:38;;;;;;;98.13;16.63;;;;;;;-3.19;100.00;97150.00;1043381;28;20156;-79
2023/02/15 02:06:09;;;;;;;99.37;17.03;;;;;;;-3.12;100.00;97160.50;1023104;29;20251;-79
2023/02/15 02:06:41;;;;;;;67.32;14.85;;;;;;;-3.03;100.00;97169.94;1026076;28;20026;-79
2023/02/15 02:07:13;;;;;;;83.18;17.63;;;;;;;-3.14;100.00;97154.72;1031142;28;20026;-79
2023/02/15 02:07:44;;;;;;;60.35;16.33;;;;;;;-3.02;100.00;97171.53;1030931;28;20021;-79
2023/02/15 02:08:16;;;;;;;72.00;17.70;;;;;;;-3.19;100.00;97144.88;1020554;29;20020;-79
2023/02/15 02:08:47;;;;;;;62.10;16.67;;;;;;;-3.01;100.00;97165.47;1023051;29;20015;-79
2023/02/15 02:09:18;;;;;;;57.94;17.40;;;;;;;-3.10;100.00;97151.72;1019206;29;20024;-78
2023/02/15 02:09:48;;;;;;;72.80;17.33;;;;;;;-3.14;100.00;97152.16;1022865;29;20023;-78
2023/02/15 02:10:22;;;;;;;46.03;16.00;;;;;;;-3.02;100.00;97155.34;1018853;29;20020;-79
2023/02/15 02:10:53;;;;;;;82.72;16.18;;;;;;;-2.97;100.00;97169.38;1026756;28;20062;-79
2023/02/15 02:11:24;;;;;;;80.83;17.33;;;;;;;-3.00;100.00;97167.09;1027088;28;20240;-79
2023/02/15 02:11:54;;;;;;;66.53;16.20;;;;;;;-3.03;100.00;97167.38;1035052;28;20046;-78
2023/02/15 02:12:25;;;;;;;54.50;16.63;;;;;;;-3.22;100.00;97134.91;1015266;29;20024;-78
2023/02/15 02:13:00;;;;;;;78.53;18.20;;;;;;;-3.00;100.00;97166.28;1015294;29;20063;-79
2023/02/15 02:13:30;;;;;;;108.75;17.15;;;;;;;-3.02;100.00;97170.75;1030336;28;20017;-79
2023/02/15 02:14:01;;;;;;;78.40;16.85;;;;;;;-3.03;100.00;97167.38;1023186;29;20042;-79
2023/02/15 02:14:31;;;;;;;101.20;15.10;;;;;;;-3.06;100.00;97169.41;1019557;29;20324;-79
2023/02/15 02:15:02;;;;;;;66.25;15.65;;;;;;;-3.09;100.00;97168.72;1024852;28;20130;-79
2023/02/15 02:15:47;;;;;;;142.07;21.52;;;;;;;-3.30;100.00;97142.50;1023428;29;20026;-79
2023/02/15 02:16:28;;;;;;;79.85;15.57;;;;;;;-3.13;100.00;97162.28;1019515;29;20032;-79
2023/02/15 02:17:20;;;;;;;148.70;18.50;;;;;;;-3.20;100.00;97163.78;1027243;28;20023;-79
2023/02/15 02:17:54;;;;;;;87.53;15.15;;;;;;;-3.18;100.00;97161.91;1031625;28;20558;-79
2023/02/15 02:18:29;;;;;;;125.32;18.65;;;;;;;-3.31;100.00;97143.44;1035087;28;20539;-79
2023/02/15 02:19:06;;;;;;;108.10;16.60;;;;;;;-3.16;100.00;97170.25;1027460;28;20019;-79
2023/02/15 02:20:11;;;;;;;116.93;19.55;;;;;;;-3.22;100.00;97162.31;1027737;28;20023;-79
2023/02/15 02:21:19;;;;;;;81.88;17.48;;;;;;;-3.14;100.00;97163.22;1024598;28;20027;-79
2023/02/15 02:22:19;;;;;;;105.82;16.02;;;;;;;-3.13;100.00;97164.84;1018693;29;20074;-78
2023/02/15 02:25:08;;;;;;;62.13;15.75;;;;;;;-3.09;100.00;97157.66;1052107;23;20064;-67
2023/02/15 02:25:57;;;;;;;68.75;16.40;;;;;;;-3.08;100.00;97157.53;1030030;28;20542;-69
2023/02/15 02:26:52;;;;;;;161.02;17.80;;;;;;;-3.09;100.00;97152.53;1030721;28;20508;-66
2023/02/15 02:27:26;;;;;;;70.53;16.05;;;;;;;-3.05;100.00;97155.63;1032700;28;20038;-65
2023/02/15 02:28:17;;;;;;;117.47;16.27;;;;;;;-3.08;100.00;97159.31;1030937;28;20021;-65
2023/02/15 02:29:05;;;;;;;;;;;;;;;-3.14;100.00;97152.97;1023607;28;20396;-67
2023/02/15 02:29:41;;;;;;;95.57;15.63;;;;;;;-3.11;100.00;97155.25;1027032;28;20012;-69
2023/02/15 02:30:35;;;;;;;82.75;16.13;;;;;;;-3.10;100.00;97156.84;1032571;28;20010;-67
2023/02/15 02:31:06;;;;;;;105.05;17.17;;;;;;;-3.09;100.00;97161.03;1035146;28;20025;-66
2023/02/15 02:31:45;;;;;;;121.77;18.03;;;;;;;-3.09;100.00;97161.03;1031023;28;20014;-66
2023/02/15 02:32:53;;;;;;;82.60;17.70;;;;;;;-3.06;100.00;97164.28;1030948;28;20010;-66
2023/02/15 02:33:26;;;;;;;131.48;19.52;;;;;;;-3.15;100.00;97161.63;1031113;28;20665;-67